Time;durP1;ratioP1;P1;durP2;ratioP2;P2;SDS_P1;SDS_P2;PMS_P1;PMS_P2;Temp;Humidity;BMP_temperature;BMP_pressure;BME280_temperature;BME280_humidity;BME280_pressure;Samples;Min_cycle;Max_cycle;Signal;HPM_P1;HPM_P2
2022/09/15 00:00:10;;;;;;;30.93;21.53;;;14.30;99.90;;;;;;5113597;28;20545;-84
2022/09/15 00:02:37;;;;;;;31.93;21.27;;;14.20;99.90;;;;;;5117705;28;20227;-82
2022/09/15 00:05:07;;;;;;;28.50;21.13;;;14.10;99.90;;;;;;5117604;28;20208;-83
2022/09/15 00:07:40;;;;;;;33.37;24.10;;;14.20;99.90;;;;;;5117679;28;20451;-84
2022/09/15 00:10:10;;;;;;;29.37;22.07;;;14.20;99.90;;;;;;5117715;28;20644;-84
2022/09/15 00:12:38;;;;;;;29.77;21.20;;;14.10;99.90;;;;;;5117223;28;20625;-84
2022/09/15 00:15:06;;;;;;;31.00;21.77;;;14.10;99.90;;;;;;5117605;28;20302;-84
2022/09/15 00:17:34;;;;;;;29.87;22.27;;;14.10;99.90;;;;;;5117885;28;20256;-84
2022/09/15 00:20:04;;;;;;;30.97;21.43;;;14.00;99.90;;;;;;5117711;28;20201;-84
2022/09/15 00:22:31;;;;;;;30.13;20.83;;;14.00;99.90;;;;;;5117892;28;20276;-84
2022/09/15 00:24:58;;;;;;;29.00;20.87;;;13.90;99.90;;;;;;5118037;28;20201;-84
2022/09/15 00:27:27;;;;;;;29.00;20.77;;;13.80;99.90;;;;;;5117522;28;20204;-83
2022/09/15 00:29:54;;;;;;;31.30;22.07;;;13.80;99.90;;;;;;5117864;28;20189;-83
2022/09/15 00:32:23;;;;;;;29.97;20.93;;;13.80;99.90;;;;;;5117392;28;20191;-84
2022/09/15 00:34:56;;;;;;;28.67;20.37;;;13.80;99.90;;;;;;5117462;28;20217;-86
2022/09/15 00:37:24;;;;;;;39.10;20.80;;;13.80;99.90;;;;;;5117280;28;20655;-85
2022/09/15 00:39:57;;;;;;;28.57;19.83;;;13.80;99.90;;;;;;5117260;28;20205;-84
2022/09/15 00:42:27;;;;;;;30.83;20.77;;;13.70;99.90;;;;;;5116738;28;20672;-85
2022/09/15 00:45:02;;;;;;;29.93;20.47;;;13.70;99.90;;;;;;5117089;28;20217;-85
2022/09/15 00:47:34;;;;;;;28.77;20.10;;;13.80;99.90;;;;;;5116906;28;20680;-84
2022/09/15 00:50:04;;;;;;;32.73;21.60;;;13.70;99.90;;;;;;5116600;28;20661;-84
2022/09/15 00:52:38;;;;;;;29.03;21.13;;;13.70;99.90;;;;;;5116836;28;20657;-84
2022/09/15 00:55:09;;;;;;;30.60;21.70;;;13.60;99.90;;;;;;5116396;28;20651;-85
2022/09/15 00:57:41;;;;;;;26.83;19.67;;;13.60;99.90;;;;;;5116938;28;20673;-86
2022/09/15 01:00:12;;;;;;;27.63;19.53;;;13.60;99.90;;;;;;5117187;28;20195;-87
2022/09/15 01:02:43;;;;;;;36.63;22.47;;;13.60;99.90;;;;;;5116980;28;20237;-85
2022/09/15 01:05:13;;;;;;;35.53;22.67;;;13.60;99.90;;;;;;5117254;28;20208;-86
2022/09/15 01:07:45;;;;;;;40.70;25.17;;;13.60;99.90;;;;;;5117512;28;20292;-87
2022/09/15 01:10:17;;;;;;;36.23;23.50;;;13.70;99.90;;;;;;5116832;28;20530;-86
2022/09/15 01:12:46;;;;;;;38.83;25.00;;;13.70;99.90;;;;;;5116723;28;20192;-85
2022/09/15 01:15:13;;;;;;;42.37;25.63;;;13.70;99.90;;;;;;5117008;28;20201;-84
2022/09/15 01:17:56;;;;;;;38.43;24.37;;;13.70;99.90;;;;;;5116048;28;20619;-87
2022/09/15 01:21:08;;;;;;;37.90;25.37;;;13.70;99.90;;;;;;5116362;28;20554;-85
2022/09/15 01:23:57;;;;;;;34.97;23.77;;;13.90;99.90;;;;;;5116672;28;20234;-85
2022/09/15 01:27:06;;;;;;;40.03;25.73;;;13.90;99.90;;;;;;5072334;28;20210;-83
2022/09/15 01:29:53;;;;;;;38.13;25.07;;;13.90;99.90;;;;;;5116160;28;20206;-87
2022/09/15 01:35:26;;;;;;;38.53;25.93;;;13.90;99.90;;;;;;5116103;28;20198;-85
2022/09/15 01:37:59;;;;;;;36.93;25.57;;;14.00;99.90;;;;;;5116115;28;20226;-85
2022/09/15 01:40:32;;;;;;;33.97;24.60;;;14.00;99.90;;;;;;5115659;28;20210;-84
2022/09/15 01:43:01;;;;;;;33.67;23.40;;;14.00;99.90;;;;;;5115348;28;20245;-84
2022/09/15 01:45:34;;;;;;;36.73;25.30;;;14.00;99.90;;;;;;5115493;28;20197;-84
2022/09/15 01:48:04;;;;;;;33.67;23.83;;;14.10;99.90;;;;;;5116023;28;20564;-85
2022/09/15 01:50:35;;;;;;;34.73;25.07;;;14.10;99.90;;;;;;5115361;28;20301;-84
2022/09/15 01:53:05;;;;;;;34.23;24.60;;;14.10;99.90;;;;;;5115459;28;20215;-84
2022/09/15 01:55:38;;;;;;;35.90;25.40;;;14.20;99.90;;;;;;5115289;28;20242;-84
2022/09/15 01:58:06;;;;;;;36.60;24.63;;;14.20;99.90;;;;;;5115622;28;20282;-85
2022/09/15 02:00:39;;;;;;;35.83;25.40;;;14.20;99.90;;;;;;5115298;28;20201;-83
2022/09/15 02:03:16;;;;;;;31.87;25.07;;;14.20;99.90;;;;;;5114870;28;20594;-85
2022/09/15 02:05:50;;;;;;;31.27;24.30;;;14.10;99.90;;;;;;5115532;28;20283;-84
2022/09/15 02:08:23;;;;;;;32.13;24.73;;;14.20;99.90;;;;;;5115061;28;20245;-83
2022/09/15 02:11:00;;;;;;;33.77;25.77;;;14.00;99.90;;;;;;5115277;28;20294;-82
2022/09/15 02:13:39;;;;;;;30.53;24.20;;;14.00;99.90;;;;;;5114899;28;20667;-84
2022/09/15 02:16:18;;;;;;;31.80;25.87;;;14.20;99.90;;;;;;5115198;28;20199;-84
2022/09/15 02:19:04;;;;;;;36.43;25.80;;;14.20;99.90;;;;;;5115358;28;20566;-84
2022/09/15 02:21:39;;;;;;;33.40;25.33;;;14.40;99.90;;;;;;5111736;28;20204;-83
2022/09/15 02:24:17;;;;;;;34.37;25.73;;;14.40;99.90;;;;;;5113866;28;20228;-84
2022/09/15 02:26:48;;;;;;;36.33;25.60;;;14.40;99.90;;;;;;5114677;28;20210;-84
2022/09/15 02:29:20;;;;;;;38.30;26.03;;;14.50;99.90;;;;;;5114672;28;20218;-83
2022/09/15 02:31:51;;;;;;;33.43;26.03;;;14.60;99.90;;;;;;5115112;28;20200;-84
2022/09/15 02:34:22;;;;;;;36.23;25.87;;;14.70;99.90;;;;;;5114789;28;20239;-83
2022/09/15 02:36:52;;;;;;;30.60;23.93;;;14.70;99.90;;;;;;5114620;28;20204;-83
2022/09/15 02:39:26;;;;;;;38.50;25.03;;;14.70;99.90;;;;;;5115019;28;20205;-83
2022/09/15 02:41:53;;;;;;;36.27;25.13;;;14.70;99.90;;;;;;5114438;28;20683;-84
2022/09/15 02:44:20;;;;;;;34.40;25.10;;;14.80;99.90;;;;;;5114745;28;20199;-84
2022/09/15 02:46:49;;;;;;;27.13;23.23;;;14.80;99.90;;;;;;5114131;28;20287;-85
2022/09/15 02:49:16;;;;;;;37.30;23.13;;;14.80;99.90;;;;;;5114511;28;20241;-84
2022/09/15 02:51:43;;;;;;;27.83;23.10;;;14.90;99.90;;;;;;5114380;28;20197;-84
2022/09/15 02:54:11;;;;;;;32.13;23.33;;;14.90;99.90;;;;;;5114502;28;20223;-83
2022/09/15 02:56:38;;;;;;;32.53;23.30;;;15.00;99.90;;;;;;5113916;28;20205;-84
2022/09/15 02:59:04;;;;;;;33.33;22.27;;;14.90;99.90;;;;;;5114496;28;20204;-84
2022/09/15 03:01:33;;;;;;;28.30;22.23;;;14.90;99.90;;;;;;5114261;28;20208;-84
2022/09/15 03:04:04;;;;;;;36.90;23.60;;;14.90;99.90;;;;;;5114358;28;20709;-83
2022/09/15 03:06:34;;;;;;;27.60;21.63;;;15.10;99.90;;;;;;5113636;28;20217;-84
2022/09/15 03:09:05;;;;;;;26.13;21.93;;;15.10;99.90;;;;;;5114438;28;20200;-84
2022/09/15 03:11:34;;;;;;;26.50;21.97;;;15.00;99.90;;;;;;5114084;28;20196;-84
2022/09/15 03:14:02;;;;;;;29.07;21.77;;;15.00;99.90;;;;;;5113717;28;20202;-84
2022/09/15 03:16:31;;;;;;;29.23;20.50;;;15.10;99.90;;;;;;5132933;27;20231;-84
2022/09/15 03:18:59;;;;;;;27.83;22.97;;;15.10;99.90;;;;;;5134368;27;20221;-83
2022/09/15 03:21:29;;;;;;;29.83;22.33;;;15.10;99.90;;;;;;5134421;27;20252;-83
2022/09/15 03:23:57;;;;;;;26.87;22.50;;;15.00;99.90;;;;;;5134359;27;20222;-83
2022/09/15 03:26:24;;;;;;;32.20;24.30;;;15.10;99.90;;;;;;5134421;27;20191;-84
2022/09/15 03:28:50;;;;;;;30.17;24.30;;;15.20;99.90;;;;;;5134582;27;20291;-83
2022/09/15 03:31:18;;;;;;;29.43;23.73;;;15.10;99.90;;;;;;5134262;27;20206;-83
2022/09/15 03:33:46;;;;;;;28.07;23.50;;;15.10;99.90;;;;;;5134546;27;20208;-84
2022/09/15 03:36:13;;;;;;;29.17;22.93;;;15.10;99.90;;;;;;5134009;27;20556;-85
2022/09/15 03:38:42;;;;;;;33.57;24.27;;;15.10;99.90;;;;;;5134496;27;20206;-84
2022/09/15 03:41:11;;;;;;;36.27;25.27;;;15.10;99.90;;;;;;5134374;28;20497;-86
2022/09/15 03:43:39;;;;;;;32.07;24.63;;;15.10;99.90;;;;;;5132778;28;20303;-84
2022/09/15 03:46:07;;;;;;;29.63;23.60;;;15.10;99.90;;;;;;5134739;28;20196;-83
2022/09/15 03:48:35;;;;;;;30.20;23.33;;;15.10;99.90;;;;;;5134450;28;20208;-83
2022/09/15 03:51:03;;;;;;;30.70;24.10;;;15.10;99.90;;;;;;5133882;28;20203;-84
2022/09/15 03:53:33;;;;;;;30.00;24.33;;;15.00;99.90;;;;;;5134351;28;20594;-84
2022/09/15 03:56:09;;;;;;;31.63;24.17;;;14.80;99.90;;;;;;5134745;28;20248;-85
2022/09/15 03:58:36;;;;;;;31.27;24.90;;;14.80;99.90;;;;;;5134333;28;20202;-84
2022/09/15 04:01:03;;;;;;;29.93;22.87;;;14.70;99.90;;;;;;5134332;28;20203;-84
2022/09/15 04:03:31;;;;;;;30.10;23.00;;;14.70;99.90;;;;;;5133994;28;20230;-85
2022/09/15 04:05:58;;;;;;;32.40;23.60;;;14.70;99.90;;;;;;5134284;28;20243;-85
2022/09/15 04:08:24;;;;;;;27.80;22.90;;;14.70;99.90;;;;;;5133869;28;20199;-86
2022/09/15 04:10:53;;;;;;;30.43;24.57;;;14.80;99.90;;;;;;5134420;28;20202;-84
2022/09/15 04:13:23;;;;;;;34.00;23.97;;;14.70;99.90;;;;;;5134240;27;20214;-84
2022/09/15 04:15:58;;;;;;;29.97;24.07;;;14.70;99.90;;;;;;5133964;28;20662;-82
2022/09/15 04:18:25;;;;;;;30.83;23.13;;;14.80;99.90;;;;;;5133861;28;20706;-85
2022/09/15 04:20:54;;;;;;;33.93;22.53;;;14.80;99.90;;;;;;5134247;28;20203;-85
2022/09/15 04:23:21;;;;;;;29.57;23.07;;;14.70;99.90;;;;;;5133765;28;20223;-84
2022/09/15 04:25:55;;;;;;;33.40;23.13;;;14.70;99.90;;;;;;5133988;28;20196;-84
2022/09/15 04:28:24;;;;;;;29.73;23.27;;;14.70;99.90;;;;;;5133892;28;20233;-84
2022/09/15 04:30:52;;;;;;;34.60;22.27;;;14.70;99.90;;;;;;5134135;28;20214;-85
2022/09/15 04:33:19;;;;;;;31.13;23.63;;;14.80;99.90;;;;;;5135086;28;20721;-84
2022/09/15 04:35:47;;;;;;;28.03;23.10;;;14.70;99.90;;;;;;5133701;28;20663;-84
2022/09/15 04:38:14;;;;;;;27.70;23.57;;;14.80;99.90;;;;;;5133768;28;20800;-85
2022/09/15 04:40:42;;;;;;;26.97;21.07;;;14.70;99.90;;;;;;5134054;28;20204;-85
2022/09/15 04:43:09;;;;;;;26.73;21.63;;;14.70;99.90;;;;;;5133599;28;20257;-85
2022/09/15 04:45:37;;;;;;;26.93;21.90;;;14.70;99.90;;;;;;5133567;28;20200;-85
2022/09/15 04:48:04;;;;;;;25.93;23.13;;;14.70;99.90;;;;;;5136184;27;20218;-84
2022/09/15 04:50:33;;;;;;;29.53;21.60;;;14.80;99.90;;;;;;5137620;27;20216;-87
2022/09/15 04:53:01;;;;;;;30.97;23.20;;;14.80;99.90;;;;;;5137570;27;20251;-83
2022/09/15 04:55:28;;;;;;;29.03;21.97;;;14.80;99.90;;;;;;5137499;27;20192;-85
2022/09/15 04:57:57;;;;;;;29.23;22.50;;;14.80;99.90;;;;;;5137052;27;20188;-83
2022/09/15 05:00:26;;;;;;;28.77;22.83;;;14.80;99.90;;;;;;5137668;27;20200;-84
2022/09/15 05:02:55;;;;;;;23.57;20.87;;;14.80;99.90;;;;;;5136559;27;20233;-83
2022/09/15 05:05:22;;;;;;;31.00;24.10;;;14.70;99.90;;;;;;5136923;27;20213;-83
2022/09/15 05:07:51;;;;;;;29.03;23.20;;;14.80;99.90;;;;;;5137335;27;20232;-86
2022/09/15 05:10:19;;;;;;;27.00;22.43;;;14.80;99.90;;;;;;5137458;27;20208;-85
2022/09/15 05:12:46;;;;;;;26.67;22.53;;;14.80;99.90;;;;;;5137420;27;20227;-86
2022/09/15 05:15:13;;;;;;;27.60;22.43;;;14.80;99.90;;;;;;5137512;27;20231;-85
2022/09/15 05:17:46;;;;;;;31.10;23.03;;;14.80;99.90;;;;;;5136715;27;20194;-86
2022/09/15 05:20:14;;;;;;;27.83;22.37;;;14.80;99.90;;;;;;5137027;27;20227;-85
2022/09/15 05:22:42;;;;;;;28.60;22.97;;;14.80;99.90;;;;;;5136927;27;20207;-86
2022/09/15 05:25:10;;;;;;;29.77;23.07;;;14.90;99.90;;;;;;5136826;27;20584;-85
2022/09/15 05:27:38;;;;;;;32.97;24.57;;;14.90;99.90;;;;;;5137132;27;20214;-85
2022/09/15 05:30:06;;;;;;;31.03;24.13;;;14.80;99.90;;;;;;5137022;27;20603;-85
2022/09/15 05:32:34;;;;;;;27.90;23.43;;;14.80;99.90;;;;;;5136821;27;20195;-85
2022/09/15 05:35:00;;;;;;;30.83;22.40;;;14.80;99.90;;;;;;5137021;27;20210;-84
2022/09/15 05:37:29;;;;;;;27.00;21.67;;;14.80;99.90;;;;;;5137009;27;20191;-83
2022/09/15 05:39:58;;;;;;;29.33;23.87;;;14.90;99.90;;;;;;5136301;27;20646;-84
2022/09/15 05:42:25;;;;;;;26.80;21.97;;;15.00;99.90;;;;;;5136890;27;20211;-85
2022/09/15 05:44:53;;;;;;;27.97;22.73;;;15.00;99.90;;;;;;5135895;27;20223;-83
2022/09/15 05:47:19;;;;;;;30.80;24.73;;;15.00;99.90;;;;;;5136312;27;20658;-83
2022/09/15 05:49:46;;;;;;;30.93;23.50;;;15.00;99.90;;;;;;5137070;27;20231;-86
2022/09/15 05:52:13;;;;;;;27.20;24.03;;;15.00;99.90;;;;;;5131988;27;20225;-85
2022/09/15 05:54:44;;;;;;;30.07;23.73;;;14.90;99.90;;;;;;5116058;28;20215;-87
2022/09/15 05:57:11;;;;;;;32.13;23.60;;;15.00;99.90;;;;;;5116688;28;20200;-86
2022/09/15 05:59:40;;;;;;;29.10;23.87;;;14.90;99.90;;;;;;5116210;28;20559;-80
2022/09/15 06:02:10;;;;;;;25.83;23.03;;;15.10;99.90;;;;;;5122595;27;20241;-89
2022/09/15 06:04:36;;;;;;;25.90;22.73;;;15.00;99.90;;;;;;5129375;27;20225;-87
2022/09/15 06:07:06;;;;;;;31.95;28.50;;;15.00;99.90;;;;;;5133363;27;20424;-91
2022/09/15 06:09:35;;;;;;;35.13;30.57;;;15.20;99.90;;;;;;5131929;27;20193;-90
2022/09/15 06:12:06;;;;;;;27.17;22.93;;;15.30;99.90;;;;;;5141149;27;20673;-90
2022/09/15 06:14:35;;;;;;;31.60;22.77;;;15.40;99.90;;;;;;5124533;27;20219;-88
2022/09/15 06:17:08;;;;;;;26.67;22.87;;;15.40;99.90;;;;;;5122703;27;20204;-84
2022/09/15 06:19:36;;;;;;;29.23;22.17;;;15.40;99.90;;;;;;5125480;27;20207;-91
2022/09/15 06:22:04;;;;;;;29.80;22.90;;;15.30;99.90;;;;;;5132058;27;20188;-86
2022/09/15 06:24:31;;;;;;;28.13;21.17;;;15.20;99.90;;;;;;5132426;27;20272;-86
2022/09/15 06:26:58;;;;;;;23.63;20.93;;;15.10;99.90;;;;;;5130424;27;20200;-87
2022/09/15 06:29:27;;;;;;;26.53;21.37;;;15.20;99.90;;;;;;5127612;27;20206;-87
2022/09/15 06:31:55;;;;;;;27.77;21.37;;;15.20;99.90;;;;;;5127518;27;20204;-85
2022/09/15 06:34:22;;;;;;;23.30;20.80;;;15.20;99.90;;;;;;5124845;27;20250;-85
2022/09/15 06:36:55;;;;;;;24.93;21.03;;;15.20;99.90;;;;;;5119532;28;20211;-87
2022/09/15 06:39:22;;;;;;;25.10;20.77;;;15.20;99.90;;;;;;5121865;28;20208;-89
2022/09/15 06:41:49;;;;;;;25.40;19.80;;;15.20;99.90;;;;;;5124861;28;20185;-89
2022/09/15 06:44:15;;;;;;;27.83;18.63;;;15.30;99.90;;;;;;5120980;28;20235;-86
2022/09/15 06:46:49;;;;;;;24.50;18.57;;;15.40;99.90;;;;;;5122243;28;20204;-90
2022/09/15 06:49:15;;;;;;;24.10;19.67;;;15.50;99.90;;;;;;5123662;27;20196;-91
2022/09/15 06:51:43;;;;;;;25.47;19.77;;;15.60;99.90;;;;;;5137441;27;20201;-87
2022/09/15 06:54:10;;;;;;;58.50;23.70;;;15.80;99.90;;;;;;5124147;27;20205;-82
2022/09/15 06:56:37;;;;;;;23.63;17.40;;;16.00;99.90;;;;;;5115980;28;20220;-86
2022/09/15 06:59:04;;;;;;;20.43;17.83;;;16.10;99.90;;;;;;5114165;28;20219;-76
2022/09/15 07:01:32;;;;;;;20.60;17.97;;;16.00;99.90;;;;;;5114265;28;20204;-77
2022/09/15 07:04:01;;;;;;;20.80;18.07;;;16.10;99.90;;;;;;5122176;27;20227;-79
2022/09/15 07:06:29;;;;;;;22.67;17.87;;;16.10;99.90;;;;;;5114148;28;20189;-76
2022/09/15 07:08:57;;;;;;;18.07;16.17;;;16.10;99.90;;;;;;5114084;28;20197;-78
2022/09/15 07:11:24;;;;;;;20.57;17.03;;;16.20;99.90;;;;;;5113579;28;20197;-80
2022/09/15 07:13:51;;;;;;;18.17;16.20;;;16.20;99.90;;;;;;5113798;28;20206;-81
2022/09/15 07:16:20;;;;;;;18.23;15.70;;;16.20;99.90;;;;;;5113745;28;20218;-77
2022/09/15 07:18:48;;;;;;;22.40;16.80;;;16.10;99.90;;;;;;5114164;28;20194;-79
2022/09/15 07:21:18;;;;;;;23.17;15.70;;;16.20;99.90;;;;;;5114089;28;20220;-74
2022/09/15 07:23:45;;;;;;;27.27;16.37;;;16.30;99.90;;;;;;5113700;28;20690;-75
2022/09/15 07:26:14;;;;;;;16.53;14.70;;;16.40;99.90;;;;;;5113606;28;20186;-79
2022/09/15 07:28:43;;;;;;;20.00;16.43;;;16.40;99.90;;;;;;5113280;28;20192;-74
2022/09/15 07:31:12;;;;;;;18.73;15.80;;;16.60;99.90;;;;;;5113857;28;20207;-79
2022/09/15 07:33:38;;;;;;;17.87;15.60;;;16.40;99.90;;;;;;5113959;28;20536;-78
2022/09/15 07:36:07;;;;;;;16.10;14.40;;;16.50;99.90;;;;;;5113794;28;20221;-79
2022/09/15 07:38:39;;;;;;;19.63;15.37;;;16.60;99.90;;;;;;5122667;27;20204;-80
2022/09/15 07:41:08;;;;;;;18.10;14.50;;;16.60;99.90;;;;;;5123346;27;20199;-74
2022/09/15 07:43:35;;;;;;;17.10;13.03;;;16.60;99.90;;;;;;5122945;28;20184;-76
2022/09/15 07:46:02;;;;;;;16.87;13.73;;;16.70;99.90;;;;;;5122851;28;20289;-76
2022/09/15 07:48:30;;;;;;;16.73;13.77;;;16.70;99.90;;;;;;5123555;27;20201;-81
2022/09/15 07:50:58;;;;;;;22.27;14.70;;;16.70;99.90;;;;;;5136034;28;20678;-84
2022/09/15 07:53:28;;;;;;;20.23;14.50;;;16.70;99.90;;;;;;5136477;28;20207;-82
2022/09/15 07:55:57;;;;;;;17.77;14.03;;;16.80;99.90;;;;;;5135285;28;20194;-77
2022/09/15 07:58:24;;;;;;;20.13;13.30;;;16.80;99.90;;;;;;5135969;28;20209;-83
2022/09/15 08:00:51;;;;;;;21.85;16.38;;;17.00;99.90;;;;;;5133557;27;20419;-84
2022/09/15 08:03:18;;;;;;;18.07;13.30;;;17.20;99.90;;;;;;5128325;28;20209;-81
2022/09/15 08:05:45;;;;;;;14.43;11.30;;;17.20;99.90;;;;;;5131493;28;20334;-85
2022/09/15 08:08:13;;;;;;;17.97;11.70;;;17.10;99.90;;;;;;5115628;28;20199;-87
2022/09/15 08:10:41;;;;;;;14.50;11.93;;;17.20;99.90;;;;;;5123373;28;20192;-88
2022/09/15 08:13:09;;;;;;;19.60;11.90;;;17.20;99.90;;;;;;5121639;28;20231;-86
2022/09/15 08:15:36;;;;;;;17.87;11.40;;;17.20;99.90;;;;;;5120044;28;20223;-91
2022/09/15 08:18:03;;;;;;;10.33;9.33;;;17.40;99.90;;;;;;5118002;28;20205;-89
2022/09/15 08:20:31;;;;;;;18.13;11.27;;;17.50;99.90;;;;;;5122136;28;20220;-84
2022/09/15 08:22:58;;;;;;;12.33;9.50;;;17.70;99.90;;;;;;5126516;28;20213;-85
2022/09/15 08:25:24;;;;;;;16.63;10.20;;;17.80;99.90;;;;;;5120433;28;20223;-83
2022/09/15 08:27:53;;;;;;;11.80;9.10;;;17.80;99.90;;;;;;5119568;28;20200;-83
2022/09/15 08:30:21;;;;;;;14.50;8.20;;;17.70;99.90;;;;;;5118108;28;20636;-83
2022/09/15 08:32:48;;;;;;;13.67;9.30;;;17.70;99.90;;;;;;5117910;28;20234;-82
2022/09/15 08:35:17;;;;;;;14.83;7.80;;;17.70;99.90;;;;;;5120871;28;20211;-87
2022/09/15 08:37:44;;;;;;;14.97;9.43;;;17.70;99.90;;;;;;5122568;28;20231;-84
2022/09/15 08:40:16;;;;;;;8.97;8.07;;;17.80;99.90;;;;;;5118489;28;20211;-82
2022/09/15 08:42:44;;;;;;;13.27;8.90;;;17.90;99.90;;;;;;5121286;28;20192;-84
2022/09/15 08:45:21;;;;;;;19.43;10.17;;;17.90;99.90;;;;;;5119143;28;20223;-83
2022/09/15 08:47:55;;;;;;;11.90;8.40;;;18.00;99.90;;;;;;5118882;28;20250;-86
2022/09/15 08:50:27;;;;;;;13.07;7.90;;;18.00;99.90;;;;;;5117503;28;20212;-82
2022/09/15 08:52:58;;;;;;;10.93;7.40;;;18.10;99.90;;;;;;5120512;28;20196;-85
2022/09/15 08:55:35;;;;;;;12.40;6.97;;;18.10;99.90;;;;;;5119055;28;20200;-84
2022/09/15 08:58:02;;;;;;;14.43;7.40;;;18.20;99.90;;;;;;5117270;28;20692;-83
2022/09/15 09:00:30;;;;;;;10.47;6.10;;;18.20;99.90;;;;;;5116943;28;20196;-84
2022/09/15 09:03:10;;;;;;;5.87;5.37;;;18.30;99.90;;;;;;5116821;28;20246;-83
2022/09/15 09:05:47;;;;;;;8.57;5.80;;;18.10;99.90;;;;;;5116563;28;20224;-83
2022/09/15 09:09:00;;;;;;;11.23;5.87;;;18.10;99.90;;;;;;5116601;28;20193;-84
2022/09/15 09:11:38;;;;;;;9.97;6.00;;;18.10;99.90;;;;;;5067933;28;20253;-82
2022/09/15 09:14:11;;;;;;;9.33;5.50;;;18.00;99.90;;;;;;5115297;28;20199;-82
2022/09/15 09:17:00;;;;;;;10.33;5.50;;;17.80;99.90;;;;;;5116048;28;20196;-82
2022/09/15 09:19:54;;;;;;;9.10;6.03;;;18.00;99.90;;;;;;5116296;28;20564;-83
2022/09/15 09:22:24;;;;;;;9.17;5.70;;;18.20;99.90;;;;;;5115529;28;20207;-83
2022/09/15 09:24:53;;;;;;;8.60;5.03;;;18.30;99.90;;;;;;5115281;28;20448;-82
2022/09/15 09:27:24;;;;;;;9.00;5.40;;;18.30;99.90;;;;;;5115683;28;20208;-82
2022/09/15 09:29:57;;;;;;;7.40;4.30;;;18.30;99.90;;;;;;5115761;28;20206;-84
2022/09/15 09:32:26;;;;;;;4.97;4.47;;;18.40;99.90;;;;;;5124989;27;20670;-81
2022/09/15 09:35:03;;;;;;;4.77;2.53;;;18.60;99.90;;;;;;5124696;27;20545;-81
2022/09/15 09:37:30;;;;;;;4.23;2.20;;;18.70;99.90;;;;;;5115759;28;20197;-81
2022/09/15 09:39:57;;;;;;;6.97;3.07;;;18.60;99.90;;;;;;5116191;28;20205;-81
2022/09/15 09:42:28;;;;;;;6.37;2.73;;;18.70;99.90;;;;;;5116562;28;20672;-84
2022/09/15 09:44:55;;;;;;;5.60;2.43;;;18.80;99.90;;;;;;5113962;28;20273;-81
2022/09/15 09:47:28;;;;;;;5.73;2.70;;;18.70;99.90;;;;;;5115044;28;20204;-75
2022/09/15 09:49:56;;;;;;;5.17;2.60;;;18.90;99.90;;;;;;5115981;27;20207;-78
2022/09/15 09:52:33;;;;;;;3.37;2.57;;;18.70;99.90;;;;;;5115891;28;20219;-75
2022/09/15 09:55:01;;;;;;;3.60;1.70;;;18.90;99.90;;;;;;5116532;28;20269;-82
2022/09/15 09:57:30;;;;;;;3.83;1.43;;;18.80;99.90;;;;;;5118638;28;20189;-83
2022/09/15 09:59:57;;;;;;;4.00;2.00;;;19.10;99.90;;;;;;5119521;28;20185;-85
2022/09/15 10:02:25;;;;;;;2.97;1.60;;;19.00;99.90;;;;;;5121092;28;20215;-85
2022/09/15 10:05:12;;;;;;;2.67;1.77;;;18.90;99.90;;;;;;5117472;28;20307;-85
2022/09/15 10:07:43;;;;;;;2.17;1.97;;;19.00;99.90;;;;;;5115703;28;20196;-85
2022/09/15 10:10:21;;;;;;;4.30;2.30;;;19.10;99.90;;;;;;5116258;28;20236;-83
2022/09/15 10:12:55;;;;;;;3.43;2.67;;;19.20;99.90;;;;;;5117054;27;20208;-82
2022/09/15 10:15:25;;;;;;;3.57;2.63;;;19.40;99.90;;;;;;5128385;27;20224;-81
2022/09/15 10:17:53;;;;;;;4.60;2.20;;;19.30;99.90;;;;;;5131855;27;20219;-82
2022/09/15 10:20:27;;;;;;;4.95;2.47;;;19.40;99.90;;;;;;5123946;27;20380;-84
2022/09/15 10:23:02;;;;;;;3.77;1.73;;;19.50;99.90;;;;;;5123895;27;20550;-85
2022/09/15 10:25:35;;;;;;;1.63;1.50;;;19.70;99.90;;;;;;5114757;28;20282;-85
2022/09/15 10:28:11;;;;;;;3.90;2.20;;;19.70;99.90;;;;;;5114698;28;20233;-85
2022/09/15 10:30:39;;;;;;;5.80;1.60;;;19.70;99.90;;;;;;5123982;27;20202;-84
2022/09/15 10:33:20;;;;;;;3.93;1.70;;;19.70;99.90;;;;;;5124747;27;20214;-86
2022/09/15 10:35:51;;;;;;;5.33;1.43;;;19.60;99.90;;;;;;5114976;28;20212;-87
2022/09/15 10:38:25;;;;;;;2.27;1.70;;;19.60;99.90;;;;;;5115133;28;20215;-86
2022/09/15 10:40:58;;;;;;;2.90;1.50;;;19.70;99.90;;;;;;5129468;27;20590;-86
2022/09/15 10:43:37;;;;;;;2.23;1.43;;;19.50;99.90;;;;;;5119986;27;20196;-86
2022/09/15 10:46:10;;;;;;;2.53;1.40;;;19.60;99.90;;;;;;5127630;27;20246;-90
2022/09/15 10:48:44;;;;;;;3.42;1.77;;;19.60;99.90;;;;;;5126729;27;20914;-88
2022/09/15 10:51:31;;;;;;;2.33;1.60;;;19.50;99.90;;;;;;5134055;27;20211;-87
2022/09/15 10:54:29;;;;;;;1.90;1.37;;;19.30;99.90;;;;;;5136082;27;20191;-84
2022/09/15 10:57:03;;;;;;;3.93;1.40;;;19.50;99.90;;;;;;5136834;27;20286;-86
2022/09/15 10:59:41;;;;;;;2.30;1.50;;;19.60;99.90;;;;;;5135336;27;20214;-85
2022/09/15 11:02:36;;;;;;;3.77;1.40;;;19.50;99.90;;;;;;5131345;27;20204;-85
2022/09/15 11:05:15;;;;;;;2.67;1.70;;;19.50;99.90;;;;;;5097141;27;20223;-86
2022/09/15 11:07:54;;;;;;;3.17;1.40;;;19.40;99.90;;;;;;5125726;27;20283;-87
2022/09/15 11:10:27;;;;;;;3.13;1.50;;;19.30;99.90;;;;;;5115595;28;20203;-86
2022/09/15 11:13:03;;;;;;;4.73;1.97;;;19.30;99.90;;;;;;5114305;28;20627;-88
2022/09/15 11:15:42;;;;;;;7.73;1.60;;;19.30;99.90;;;;;;5123044;27;20216;-86
2022/09/15 11:18:37;;;;;;;5.97;1.70;;;19.20;99.90;;;;;;5139313;27;20548;-90
2022/09/15 11:21:25;;;;;;;5.53;1.40;;;18.50;99.90;;;;;;5115750;28;20201;-89
2022/09/15 11:24:07;;;;;;;11.43;2.03;;;18.50;99.90;;;;;;5126268;27;20290;-88
2022/09/15 11:26:38;;;;;;;6.00;2.13;;;18.10;99.90;;;;;;5134791;27;20220;-82
2022/09/15 11:29:10;;;;;;;4.10;1.57;;;18.20;99.90;;;;;;5129496;27;20206;-84
2022/09/15 11:31:39;;;;;;;3.77;1.30;;;18.00;99.90;;;;;;5128461;27;20197;-86
2022/09/15 11:34:15;;;;;;;5.33;1.40;;;18.00;99.90;;;;;;5118911;28;20670;-86
2022/09/15 11:36:53;;;;;;;6.25;1.60;;;18.10;99.90;;;;;;5120164;28;20429;-87
2022/09/15 11:39:33;;;;;;;7.97;1.90;;;18.30;99.90;;;;;;5120436;28;20196;-86
2022/09/15 11:42:09;;;;;;;8.63;1.80;;;18.40;99.90;;;;;;5114810;28;20561;-87
2022/09/15 11:44:39;;;;;;;4.03;1.30;;;18.60;99.90;;;;;;5112856;28;20230;-83
2022/09/15 11:47:15;;;;;;;8.77;2.60;;;18.60;99.90;;;;;;5114106;28;20233;-82
2022/09/15 11:49:48;;;;;;;10.40;1.60;;;18.80;99.90;;;;;;5113104;28;20215;-83
2022/09/15 11:52:27;;;;;;;2.53;1.30;;;18.70;99.90;;;;;;5113950;28;20216;-86
2022/09/15 11:55:02;;;;;;;6.10;1.37;;;18.90;99.90;;;;;;5115521;28;20565;-86
2022/09/15 11:57:36;;;;;;;8.53;2.10;;;18.90;99.90;;;;;;5125355;27;20196;-84
2022/09/15 12:00:10;;;;;;;4.85;1.40;;;18.60;99.90;;;;;;5120273;27;20471;-87
2022/09/15 12:02:46;;;;;;;6.03;1.97;;;18.60;99.90;;;;;;5132319;27;20207;-89
2022/09/15 12:05:17;;;;;;;6.87;1.60;;;18.70;99.90;;;;;;5118455;28;20235;-84
2022/09/15 12:07:51;;;;;;;4.80;1.50;;;18.50;99.90;;;;;;5124721;27;20307;-86
2022/09/15 12:10:23;;;;;;;2.40;1.47;;;18.70;99.90;;;;;;5136937;27;20205;-85
2022/09/15 12:12:52;;;;;;;13.23;2.37;;;18.80;99.90;;;;;;5130115;27;20200;-86
2022/09/15 12:15:26;;;;;;;24.03;3.80;;;18.70;99.90;;;;;;5120136;27;20227;-85
2022/09/15 12:18:03;;;;;;;5.70;1.50;;;18.90;99.90;;;;;;5137460;27;20211;-84
2022/09/15 12:20:37;;;;;;;6.60;1.80;;;19.30;99.90;;;;;;5137794;27;20210;-87
2022/09/15 12:23:17;;;;;;;4.03;1.27;;;19.40;99.90;;;;;;5137668;27;20208;-85
2022/09/15 12:25:58;;;;;;;5.83;1.30;;;19.60;99.90;;;;;;5122348;27;20231;-85
2022/09/15 12:28:50;;;;;;;14.47;2.30;;;19.40;99.90;;;;;;5131575;27;20192;-86
2022/09/15 12:31:35;;;;;;;63.97;6.10;;;18.90;99.90;;;;;;5138249;27;20211;-86
2022/09/15 12:34:25;;;;;;;7.90;1.83;;;19.20;99.90;;;;;;5137857;27;20275;-88
2022/09/15 12:36:54;;;;;;;127.63;13.50;;;19.20;99.90;;;;;;5137999;27;20790;-86
2022/09/15 12:39:24;;;;;;;99.73;10.50;;;19.50;99.90;;;;;;5137975;27;20207;-86
2022/09/15 12:41:57;;;;;;;4.40;1.40;;;19.50;99.90;;;;;;5137855;27;20207;-87
2022/09/15 12:44:34;;;;;;;2.60;0.93;;;19.80;99.90;;;;;;5138148;27;20188;-87
2022/09/15 12:47:17;;;;;;;5.40;1.30;;;19.90;99.90;;;;;;5141629;27;20219;-87
2022/09/15 12:49:47;;;;;;;3.17;1.27;;;19.70;99.90;;;;;;5137663;27;20622;-85
2022/09/15 12:52:15;;;;;;;4.30;1.37;;;19.50;99.90;;;;;;5133666;27;20203;-92
2022/09/15 12:54:45;;;;;;;7.43;1.63;;;19.50;99.90;;;;;;5119605;28;20204;-88
2022/09/15 12:57:22;;;;;;;6.83;1.77;;;19.70;99.90;;;;;;5125148;27;20199;-91